sensor_id;sensor_type;location;lat;lon;timestamp;temperature;humidity
27697;DHT22;15105;56.514;21.002;2022-07-23T00:00:41;20.00;99.90
27697;DHT22;15105;56.514;21.002;2022-07-23T00:03:08;20.00;99.90
27697;DHT22;15105;56.514;21.002;2022-07-23T00:05:35;20.00;99.90
27697;DHT22;15105;56.514;21.002;2022-07-23T00:08:04;20.00;99.90
27697;DHT22;15105;56.514;21.002;2022-07-23T00:10:36;20.10;99.90
27697;DHT22;15105;56.514;21.002;2022-07-23T00:13:03;20.10;99.90
27697;DHT22;15105;56.514;21.002;2022-07-23T00:15:30;20.00;99.90
27697;DHT22;15105;56.514;21.002;2022-07-23T00:17:57;20.00;99.90
27697;DHT22;15105;56.514;21.002;2022-07-23T00:20:25;20.00;99.90
27697;DHT22;15105;56.514;21.002;2022-07-23T00:22:54;20.00;99.90
27697;DHT22;15105;56.514;21.002;2022-07-23T00:25:22;19.90;99.90
27697;DHT22;15105;56.514;21.002;2022-07-23T00:27:55;19.90;99.90
27697;DHT22;15105;56.514;21.002;2022-07-23T00:30:22;19.90;99.90
27697;DHT22;15105;56.514;21.002;2022-07-23T00:32:54;19.90;99.90
27697;DHT22;15105;56.514;21.002;2022-07-23T00:35:28;19.80;99.90
27697;DHT22;15105;56.514;21.002;2022-07-23T00:37:56;19.80;99.90
27697;DHT22;15105;56.514;21.002;2022-07-23T00:40:25;19.80;99.90
27697;DHT22;15105;56.514;21.002;2022-07-23T00:42:52;19.80;99.90
27697;DHT22;15105;56.514;21.002;2022-07-23T00:45:19;19.80;99.90
27697;DHT22;15105;56.514;21.002;2022-07-23T00:47:46;19.70;99.90
27697;DHT22;15105;56.514;21.002;2022-07-23T00:50:14;19.60;99.90
27697;DHT22;15105;56.514;21.002;2022-07-23T00:52:41;19.70;99.90
27697;DHT22;15105;56.514;21.002;2022-07-23T00:55:09;19.70;99.90
27697;DHT22;15105;56.514;21.002;2022-07-23T00:57:37;19.70;99.90
27697;DHT22;15105;56.514;21.002;2022-07-23T01:00:06;19.70;99.90
27697;DHT22;15105;56.514;21.002;2022-07-23T01:02:33;19.70;99.90
27697;DHT22;15105;56.514;21.002;2022-07-23T01:05:00;19.60;99.90
27697;DHT22;15105;56.514;21.002;2022-07-23T01:07:28;19.60;99.90
27697;DHT22;15105;56.514;21.002;2022-07-23T01:09:55;19.60;99.90
27697;DHT22;15105;56.514;21.002;2022-07-23T01:12:22;19.60;99.90
27697;DHT22;15105;56.514;21.002;2022-07-23T01:14:57;19.50;99.90
27697;DHT22;15105;56.514;21.002;2022-07-23T01:17:25;19.50;99.90
27697;DHT22;15105;56.514;21.002;2022-07-23T01:19:52;19.50;99.90
27697;DHT22;15105;56.514;21.002;2022-07-23T01:22:20;19.40;99.90
27697;DHT22;15105;56.514;21.002;2022-07-23T01:24:47;19.40;99.90
27697;DHT22;15105;56.514;21.002;2022-07-23T01:27:14;19.40;99.90
27697;DHT22;15105;56.514;21.002;2022-07-23T01:29:44;19.40;99.90
27697;DHT22;15105;56.514;21.002;2022-07-23T01:32:11;19.40;99.90
27697;DHT22;15105;56.514;21.002;2022-07-23T01:34:38;19.40;99.90
27697;DHT22;15105;56.514;21.002;2022-07-23T01:37:07;19.40;99.90
27697;DHT22;15105;56.514;21.002;2022-07-23T01:39:34;19.40;99.90
27697;DHT22;15105;56.514;21.002;2022-07-23T01:42:01;19.40;99.90
27697;DHT22;15105;56.514;21.002;2022-07-23T01:44:29;19.50;99.90
27697;DHT22;15105;56.514;21.002;2022-07-23T01:46:56;19.40;99.90
27697;DHT22;15105;56.514;21.002;2022-07-23T01:49:23;19.40;99.90
27697;DHT22;15105;56.514;21.002;2022-07-23T01:51:50;19.40;99.90
27697;DHT22;15105;56.514;21.002;2022-07-23T01:54:31;19.40;99.90
27697;DHT22;15105;56.514;21.002;2022-07-23T01:56:59;19.30;99.90
27697;DHT22;15105;56.514;21.002;2022-07-23T01:59:27;19.30;99.90
27697;DHT22;15105;56.514;21.002;2022-07-23T02:01:54;19.30;99.90
27697;DHT22;15105;56.514;21.002;2022-07-23T02:04:22;19.30;99.90
27697;DHT22;15105;56.514;21.002;2022-07-23T02:06:50;19.20;99.90
27697;DHT22;15105;56.514;21.002;2022-07-23T02:09:17;19.20;99.90
27697;DHT22;15105;56.514;21.002;2022-07-23T02:11:45;19.10;99.90
27697;DHT22;15105;56.514;21.002;2022-07-23T02:14:12;19.10;99.90
27697;DHT22;15105;56.514;21.002;2022-07-23T02:16:39;19.10;99.90
27697;DHT22;15105;56.514;21.002;2022-07-23T02:19:06;19.10;99.90
27697;DHT22;15105;56.514;21.002;2022-07-23T02:21:33;19.10;99.90
27697;DHT22;15105;56.514;21.002;2022-07-23T02:24:01;19.10;99.90
27697;DHT22;15105;56.514;21.002;2022-07-23T02:26:28;19.10;99.90
27697;DHT22;15105;56.514;21.002;2022-07-23T02:28:54;19.10;99.90
27697;DHT22;15105;56.514;21.002;2022-07-23T02:31:21;19.00;99.90
27697;DHT22;15105;56.514;21.002;2022-07-23T02:33:48;19.00;99.90
27697;DHT22;15105;56.514;21.002;2022-07-23T02:36:15;19.00;99.90
27697;DHT22;15105;56.514;21.002;2022-07-23T02:38:42;19.00;99.90
27697;DHT22;15105;56.514;21.002;2022-07-23T02:41:09;19.00;99.90
27697;DHT22;15105;56.514;21.002;2022-07-23T02:43:36;18.90;99.90
27697;DHT22;15105;56.514;21.002;2022-07-23T02:46:03;18.90;99.90
27697;DHT22;15105;56.514;21.002;2022-07-23T02:48:30;18.80;99.90
27697;DHT22;15105;56.514;21.002;2022-07-23T02:51:00;18.80;99.90
27697;DHT22;15105;56.514;21.002;2022-07-23T02:53:27;18.80;99.90
27697;DHT22;15105;56.514;21.002;2022-07-23T02:55:54;18.80;99.90
27697;DHT22;15105;56.514;21.002;2022-07-23T02:58:21;18.80;99.90
27697;DHT22;15105;56.514;21.002;2022-07-23T03:00:48;18.80;99.90
27697;DHT22;15105;56.514;21.002;2022-07-23T03:03:16;18.80;99.90
27697;DHT22;15105;56.514;21.002;2022-07-23T03:05:43;18.80;99.90
27697;DHT22;15105;56.514;21.002;2022-07-23T03:08:10;18.80;99.90
27697;DHT22;15105;56.514;21.002;2022-07-23T03:10:37;18.80;99.90
27697;DHT22;15105;56.514;21.002;2022-07-23T03:13:04;18.90;99.90
27697;DHT22;15105;56.514;21.002;2022-07-23T03:15:31;18.90;99.90
27697;DHT22;15105;56.514;21.002;2022-07-23T03:17:58;18.90;99.90
27697;DHT22;15105;56.514;21.002;2022-07-23T03:20:25;18.90;99.90
27697;DHT22;15105;56.514;21.002;2022-07-23T03:22:52;18.90;99.90
27697;DHT22;15105;56.514;21.002;2022-07-23T03:25:19;18.90;99.90
27697;DHT22;15105;56.514;21.002;2022-07-23T03:27:46;18.90;99.90
27697;DHT22;15105;56.514;21.002;2022-07-23T03:30:14;18.80;99.90
27697;DHT22;15105;56.514;21.002;2022-07-23T03:32:41;18.90;99.90
27697;DHT22;15105;56.514;21.002;2022-07-23T03:35:08;18.80;99.90
27697;DHT22;15105;56.514;21.002;2022-07-23T03:37:35;18.80;99.90
27697;DHT22;15105;56.514;21.002;2022-07-23T03:40:04;18.80;99.90
27697;DHT22;15105;56.514;21.002;2022-07-23T03:42:31;18.80;99.90
27697;DHT22;15105;56.514;21.002;2022-07-23T03:44:58;18.80;99.90
27697;DHT22;15105;56.514;21.002;2022-07-23T03:47:25;18.80;99.90
27697;DHT22;15105;56.514;21.002;2022-07-23T03:49:52;18.90;99.90
27697;DHT22;15105;56.514;21.002;2022-07-23T03:52:19;19.00;99.90
27697;DHT22;15105;56.514;21.002;2022-07-23T03:54:46;19.30;99.90
27697;DHT22;15105;56.514;21.002;2022-07-23T03:57:13;19.40;99.90
27697;DHT22;15105;56.514;21.002;2022-07-23T03:59:40;19.40;99.90
27697;DHT22;15105;56.514;21.002;2022-07-23T04:02:07;19.40;99.90
27697;DHT22;15105;56.514;21.002;2022-07-23T04:04:34;19.40;99.90
27697;DHT22;15105;56.514;21.002;2022-07-23T04:07:01;19.40;99.90
27697;DHT22;15105;56.514;21.002;2022-07-23T04:09:29;19.60;99.90
27697;DHT22;15105;56.514;21.002;2022-07-23T04:11:56;19.90;99.90
27697;DHT22;15105;56.514;21.002;2022-07-23T04:14:23;19.90;99.90
27697;DHT22;15105;56.514;21.002;2022-07-23T04:16:50;19.80;99.90
27697;DHT22;15105;56.514;21.002;2022-07-23T04:19:17;19.80;99.90
27697;DHT22;15105;56.514;21.002;2022-07-23T04:21:44;19.80;99.90
27697;DHT22;15105;56.514;21.002;2022-07-23T04:24:11;20.00;99.90
27697;DHT22;15105;56.514;21.002;2022-07-23T04:26:39;20.30;99.90
27697;DHT22;15105;56.514;21.002;2022-07-23T04:29:05;20.60;99.90
27697;DHT22;15105;56.514;21.002;2022-07-23T04:31:33;21.70;99.90
27697;DHT22;15105;56.514;21.002;2022-07-23T04:34:03;21.70;99.90
27697;DHT22;15105;56.514;21.002;2022-07-23T04:36:30;21.90;99.90
27697;DHT22;15105;56.514;21.002;2022-07-23T04:38:57;22.10;99.90
27697;DHT22;15105;56.514;21.002;2022-07-23T04:41:24;21.50;99.90
27697;DHT22;15105;56.514;21.002;2022-07-23T04:43:51;21.20;99.90
27697;DHT22;15105;56.514;21.002;2022-07-23T04:46:19;22.30;99.90
27697;DHT22;15105;56.514;21.002;2022-07-23T04:48:46;22.30;99.90
27697;DHT22;15105;56.514;21.002;2022-07-23T04:51:14;21.50;99.90
27697;DHT22;15105;56.514;21.002;2022-07-23T04:53:41;20.90;99.90
27697;DHT22;15105;56.514;21.002;2022-07-23T04:56:08;20.50;99.90
27697;DHT22;15105;56.514;21.002;2022-07-23T04:58:35;20.10;99.90
27697;DHT22;15105;56.514;21.002;2022-07-23T05:01:03;19.90;99.90
27697;DHT22;15105;56.514;21.002;2022-07-23T05:03:30;19.80;99.90
27697;DHT22;15105;56.514;21.002;2022-07-23T05:05:57;19.70;99.90
27697;DHT22;15105;56.514;21.002;2022-07-23T05:08:24;19.80;99.90
27697;DHT22;15105;56.514;21.002;2022-07-23T05:10:51;19.90;99.90
27697;DHT22;15105;56.514;21.002;2022-07-23T05:13:25;19.90;99.90
27697;DHT22;15105;56.514;21.002;2022-07-23T05:15:52;19.80;99.90
27697;DHT22;15105;56.514;21.002;2022-07-23T05:18:19;19.70;99.90
27697;DHT22;15105;56.514;21.002;2022-07-23T05:20:46;20.00;99.90
27697;DHT22;15105;56.514;21.002;2022-07-23T05:23:13;20.60;99.90
27697;DHT22;15105;56.514;21.002;2022-07-23T05:25:40;21.10;99.90
27697;DHT22;15105;56.514;21.002;2022-07-23T05:28:07;21.40;99.90
27697;DHT22;15105;56.514;21.002;2022-07-23T05:30:34;21.50;99.90
27697;DHT22;15105;56.514;21.002;2022-07-23T05:33:01;21.50;99.90
27697;DHT22;15105;56.514;21.002;2022-07-23T05:35:28;21.40;99.90
27697;DHT22;15105;56.514;21.002;2022-07-23T05:37:55;21.20;99.90
27697;DHT22;15105;56.514;21.002;2022-07-23T05:40:22;21.00;99.90
27697;DHT22;15105;56.514;21.002;2022-07-23T05:42:49;20.90;99.90
27697;DHT22;15105;56.514;21.002;2022-07-23T05:45:16;20.80;99.90
27697;DHT22;15105;56.514;21.002;2022-07-23T05:47:48;20.70;99.90
27697;DHT22;15105;56.514;21.002;2022-07-23T05:50:16;20.60;99.90
27697;DHT22;15105;56.514;21.002;2022-07-23T05:52:44;20.50;99.90
27697;DHT22;15105;56.514;21.002;2022-07-23T05:55:11;20.50;99.90
27697;DHT22;15105;56.514;21.002;2022-07-23T05:57:40;20.50;99.90
27697;DHT22;15105;56.514;21.002;2022-07-23T06:00:09;20.60;99.90
27697;DHT22;15105;56.514;21.002;2022-07-23T06:02:38;20.60;99.90
27697;DHT22;15105;56.514;21.002;2022-07-23T06:05:06;20.60;99.90
27697;DHT22;15105;56.514;21.002;2022-07-23T06:07:35;20.60;99.90
27697;DHT22;15105;56.514;21.002;2022-07-23T06:10:03;20.40;99.90
27697;DHT22;15105;56.514;21.002;2022-07-23T06:12:30;20.30;99.90
27697;DHT22;15105;56.514;21.002;2022-07-23T06:14:58;20.20;99.90
27697;DHT22;15105;56.514;21.002;2022-07-23T06:17:25;20.10;99.90
27697;DHT22;15105;56.514;21.002;2022-07-23T06:19:53;20.00;99.90
27697;DHT22;15105;56.514;21.002;2022-07-23T06:22:21;20.00;99.90
27697;DHT22;15105;56.514;21.002;2022-07-23T06:24:48;20.00;99.90
27697;DHT22;15105;56.514;21.002;2022-07-23T06:27:15;20.10;99.90
27697;DHT22;15105;56.514;21.002;2022-07-23T06:29:47;20.10;99.90
27697;DHT22;15105;56.514;21.002;2022-07-23T06:32:14;20.20;99.90
27697;DHT22;15105;56.514;21.002;2022-07-23T06:34:41;20.30;99.90
27697;DHT22;15105;56.514;21.002;2022-07-23T06:37:14;20.30;99.90
27697;DHT22;15105;56.514;21.002;2022-07-23T06:39:41;20.30;99.90
27697;DHT22;15105;56.514;21.002;2022-07-23T06:42:11;20.50;99.90
27697;DHT22;15105;56.514;21.002;2022-07-23T06:44:38;20.60;99.90
27697;DHT22;15105;56.514;21.002;2022-07-23T06:47:06;20.80;99.90
27697;DHT22;15105;56.514;21.002;2022-07-23T06:49:33;20.90;99.90
27697;DHT22;15105;56.514;21.002;2022-07-23T06:52:00;20.80;99.90
27697;DHT22;15105;56.514;21.002;2022-07-23T06:54:27;20.80;99.90
27697;DHT22;15105;56.514;21.002;2022-07-23T06:56:54;20.80;99.90
27697;DHT22;15105;56.514;21.002;2022-07-23T06:59:21;20.80;99.90
27697;DHT22;15105;56.514;21.002;2022-07-23T07:01:48;20.80;99.90
27697;DHT22;15105;56.514;21.002;2022-07-23T07:04:15;20.70;99.90
27697;DHT22;15105;56.514;21.002;2022-07-23T07:06:42;20.50;99.90
27697;DHT22;15105;56.514;21.002;2022-07-23T07:09:09;20.40;99.90
27697;DHT22;15105;56.514;21.002;2022-07-23T07:11:37;20.30;99.90
27697;DHT22;15105;56.514;21.002;2022-07-23T07:14:04;20.20;99.90
27697;DHT22;15105;56.514;21.002;2022-07-23T07:16:31;20.20;99.90
27697;DHT22;15105;56.514;21.002;2022-07-23T07:18:58;20.30;99.90
27697;DHT22;15105;56.514;21.002;2022-07-23T07:21:26;20.40;99.90
27697;DHT22;15105;56.514;21.002;2022-07-23T07:23:53;20.70;99.90
27697;DHT22;15105;56.514;21.002;2022-07-23T07:26:20;21.00;99.90
27697;DHT22;15105;56.514;21.002;2022-07-23T07:28:47;21.20;99.90
27697;DHT22;15105;56.514;21.002;2022-07-23T07:31:14;21.30;99.90
27697;DHT22;15105;56.514;21.002;2022-07-23T07:33:41;21.20;99.90
27697;DHT22;15105;56.514;21.002;2022-07-23T07:36:13;21.00;99.90
27697;DHT22;15105;56.514;21.002;2022-07-23T07:38:39;20.80;99.90
27697;DHT22;15105;56.514;21.002;2022-07-23T07:41:06;20.60;99.90
27697;DHT22;15105;56.514;21.002;2022-07-23T07:43:34;20.90;99.90
27697;DHT22;15105;56.514;21.002;2022-07-23T07:46:02;21.40;99.90
27697;DHT22;15105;56.514;21.002;2022-07-23T07:48:29;21.50;99.90
27697;DHT22;15105;56.514;21.002;2022-07-23T07:50:56;21.70;99.90
27697;DHT22;15105;56.514;21.002;2022-07-23T07:53:23;21.80;99.90
27697;DHT22;15105;56.514;21.002;2022-07-23T07:55:51;22.00;99.90
27697;DHT22;15105;56.514;21.002;2022-07-23T07:58:18;22.30;99.90
27697;DHT22;15105;56.514;21.002;2022-07-23T08:00:45;22.30;99.90
27697;DHT22;15105;56.514;21.002;2022-07-23T08:03:13;22.20;99.90
27697;DHT22;15105;56.514;21.002;2022-07-23T08:05:41;22.10;99.90
27697;DHT22;15105;56.514;21.002;2022-07-23T08:08:08;22.10;99.90
27697;DHT22;15105;56.514;21.002;2022-07-23T08:10:41;22.00;99.90
27697;DHT22;15105;56.514;21.002;2022-07-23T08:13:15;21.70;99.90
27697;DHT22;15105;56.514;21.002;2022-07-23T08:15:43;21.60;99.90
27697;DHT22;15105;56.514;21.002;2022-07-23T08:18:12;21.70;99.90
27697;DHT22;15105;56.514;21.002;2022-07-23T08:20:39;21.90;99.90
27697;DHT22;15105;56.514;21.002;2022-07-23T08:23:07;22.10;99.90
27697;DHT22;15105;56.514;21.002;2022-07-23T08:25:38;22.20;99.90
27697;DHT22;15105;56.514;21.002;2022-07-23T08:28:07;22.30;99.90
27697;DHT22;15105;56.514;21.002;2022-07-23T08:30:35;22.30;99.90
27697;DHT22;15105;56.514;21.002;2022-07-23T08:33:05;22.50;99.90
27697;DHT22;15105;56.514;21.002;2022-07-23T08:35:36;22.80;99.90
27697;DHT22;15105;56.514;21.002;2022-07-23T08:38:06;23.00;99.90
27697;DHT22;15105;56.514;21.002;2022-07-23T08:40:35;22.90;99.90
27697;DHT22;15105;56.514;21.002;2022-07-23T08:43:13;22.80;99.90
27697;DHT22;15105;56.514;21.002;2022-07-23T08:45:46;22.80;99.90
27697;DHT22;15105;56.514;21.002;2022-07-23T08:48:16;22.70;99.90
27697;DHT22;15105;56.514;21.002;2022-07-23T08:50:45;22.70;99.90
27697;DHT22;15105;56.514;21.002;2022-07-23T08:53:14;22.80;99.90
27697;DHT22;15105;56.514;21.002;2022-07-23T08:55:47;22.90;99.90
27697;DHT22;15105;56.514;21.002;2022-07-23T08:58:15;22.90;99.90
27697;DHT22;15105;56.514;21.002;2022-07-23T09:00:43;22.90;99.90
27697;DHT22;15105;56.514;21.002;2022-07-23T09:03:19;23.00;99.90
27697;DHT22;15105;56.514;21.002;2022-07-23T09:05:47;22.90;99.90
27697;DHT22;15105;56.514;21.002;2022-07-23T09:08:21;22.50;99.90
27697;DHT22;15105;56.514;21.002;2022-07-23T09:13:48;22.40;99.90
27697;DHT22;15105;56.514;21.002;2022-07-23T09:16:18;22.30;99.90
27697;DHT22;15105;56.514;21.002;2022-07-23T09:19:01;22.30;99.90
27697;DHT22;15105;56.514;21.002;2022-07-23T09:21:30;22.30;99.90
27697;DHT22;15105;56.514;21.002;2022-07-23T09:29:16;22.80;99.90
27697;DHT22;15105;56.514;21.002;2022-07-23T09:34:33;22.60;99.90
27697;DHT22;15105;56.514;21.002;2022-07-23T09:37:19;22.60;99.90
27697;DHT22;15105;56.514;21.002;2022-07-23T09:39:47;22.40;99.90
27697;DHT22;15105;56.514;21.002;2022-07-23T09:42:16;22.50;99.90
27697;DHT22;15105;56.514;21.002;2022-07-23T09:44:51;22.60;99.90
27697;DHT22;15105;56.514;21.002;2022-07-23T09:47:20;22.80;99.90
27697;DHT22;15105;56.514;21.002;2022-07-23T09:50:06;22.90;99.90
27697;DHT22;15105;56.514;21.002;2022-07-23T09:52:46;22.70;99.90
27697;DHT22;15105;56.514;21.002;2022-07-23T09:55:15;22.60;99.90
27697;DHT22;15105;56.514;21.002;2022-07-23T09:57:43;22.60;99.90
27697;DHT22;15105;56.514;21.002;2022-07-23T10:00:13;22.50;99.90
27697;DHT22;15105;56.514;21.002;2022-07-23T10:02:40;22.30;99.90
27697;DHT22;15105;56.514;21.002;2022-07-23T10:05:08;22.10;99.90
27697;DHT22;15105;56.514;21.002;2022-07-23T10:07:37;22.20;99.90
27697;DHT22;15105;56.514;21.002;2022-07-23T10:10:06;22.10;99.90
27697;DHT22;15105;56.514;21.002;2022-07-23T10:12:33;22.20;99.90
27697;DHT22;15105;56.514;21.002;2022-07-23T10:15:09;22.30;99.90
27697;DHT22;15105;56.514;21.002;2022-07-23T10:17:36;22.60;99.90
27697;DHT22;15105;56.514;21.002;2022-07-23T10:20:04;22.60;99.90
27697;DHT22;15105;56.514;21.002;2022-07-23T10:22:38;22.60;99.90
27697;DHT22;15105;56.514;21.002;2022-07-23T10:37:40;22.20;99.90
27697;DHT22;15105;56.514;21.002;2022-07-23T10:40:17;22.50;99.90
27697;DHT22;15105;56.514;21.002;2022-07-23T10:42:45;22.70;99.90
27697;DHT22;15105;56.514;21.002;2022-07-23T10:47:54;22.70;99.90
27697;DHT22;15105;56.514;21.002;2022-07-23T10:50:29;22.50;99.90
27697;DHT22;15105;56.514;21.002;2022-07-23T10:53:17;22.50;99.90
27697;DHT22;15105;56.514;21.002;2022-07-23T10:55:50;22.50;99.90
27697;DHT22;15105;56.514;21.002;2022-07-23T10:58:50;22.60;99.90
27697;DHT22;15105;56.514;21.002;2022-07-23T11:01:33;22.40;99.90
27697;DHT22;15105;56.514;21.002;2022-07-23T11:04:01;22.20;99.90
27697;DHT22;15105;56.514;21.002;2022-07-23T11:09:27;21.80;99.90
27697;DHT22;15105;56.514;21.002;2022-07-23T11:17:25;21.60;99.90
27697;DHT22;15105;56.514;21.002;2022-07-23T11:22:50;21.60;99.90
27697;DHT22;15105;56.514;21.002;2022-07-23T11:28:30;21.50;99.90
27697;DHT22;15105;56.514;21.002;2022-07-23T11:30:57;21.50;99.90
27697;DHT22;15105;56.514;21.002;2022-07-23T11:33:24;21.70;99.90
27697;DHT22;15105;56.514;21.002;2022-07-23T11:36:01;21.90;99.90
27697;DHT22;15105;56.514;21.002;2022-07-23T11:38:31;21.90;99.90
27697;DHT22;15105;56.514;21.002;2022-07-23T11:40:58;21.70;99.90
27697;DHT22;15105;56.514;21.002;2022-07-23T11:43:26;21.60;99.90
27697;DHT22;15105;56.514;21.002;2022-07-23T11:45:57;21.40;99.90
27697;DHT22;15105;56.514;21.002;2022-07-23T11:48:27;21.40;99.90
27697;DHT22;15105;56.514;21.002;2022-07-23T11:50:56;21.50;99.90
27697;DHT22;15105;56.514;21.002;2022-07-23T11:53:30;21.60;99.90
27697;DHT22;15105;56.514;21.002;2022-07-23T11:56:26;21.80;99.90
27697;DHT22;15105;56.514;21.002;2022-07-23T11:58:57;21.80;99.90
27697;DHT22;15105;56.514;21.002;2022-07-23T12:01:26;22.00;99.90
27697;DHT22;15105;56.514;21.002;2022-07-23T12:03:53;22.20;99.90
27697;DHT22;15105;56.514;21.002;2022-07-23T12:06:20;22.30;99.90
27697;DHT22;15105;56.514;21.002;2022-07-23T12:08:47;22.50;99.90
27697;DHT22;15105;56.514;21.002;2022-07-23T12:11:14;22.40;99.90
27697;DHT22;15105;56.514;21.002;2022-07-23T12:13:41;22.40;99.90
27697;DHT22;15105;56.514;21.002;2022-07-23T12:16:09;22.50;99.90
27697;DHT22;15105;56.514;21.002;2022-07-23T12:18:36;22.50;99.90
27697;DHT22;15105;56.514;21.002;2022-07-23T12:21:04;22.30;99.90
27697;DHT22;15105;56.514;21.002;2022-07-23T12:23:33;22.20;99.90
27697;DHT22;15105;56.514;21.002;2022-07-23T12:26:02;22.20;99.90
27697;DHT22;15105;56.514;21.002;2022-07-23T12:28:31;22.30;99.90
27697;DHT22;15105;56.514;21.002;2022-07-23T12:31:04;22.10;99.90
27697;DHT22;15105;56.514;21.002;2022-07-23T12:33:34;21.90;99.90
27697;DHT22;15105;56.514;21.002;2022-07-23T12:36:04;21.70;99.90
27697;DHT22;15105;56.514;21.002;2022-07-23T12:38:46;21.60;99.90
27697;DHT22;15105;56.514;21.002;2022-07-23T12:41:14;21.50;99.90
27697;DHT22;15105;56.514;21.002;2022-07-23T12:43:44;21.50;99.90
27697;DHT22;15105;56.514;21.002;2022-07-23T12:46:14;21.40;99.90
27697;DHT22;15105;56.514;21.002;2022-07-23T12:51:22;21.40;99.90
27697;DHT22;15105;56.514;21.002;2022-07-23T12:53:57;21.20;99.90
27697;DHT22;15105;56.514;21.002;2022-07-23T12:56:31;21.10;99.90
27697;DHT22;15105;56.514;21.002;2022-07-23T13:01:36;20.70;99.90
27697;DHT22;15105;56.514;21.002;2022-07-23T13:04:11;20.60;99.90
27697;DHT22;15105;56.514;21.002;2022-07-23T13:06:44;20.60;99.90
27697;DHT22;15105;56.514;21.002;2022-07-23T13:09:25;20.60;99.90
27697;DHT22;15105;56.514;21.002;2022-07-23T13:11:54;20.60;99.90
27697;DHT22;15105;56.514;21.002;2022-07-23T13:14:41;20.40;99.90
27697;DHT22;15105;56.514;21.002;2022-07-23T13:17:08;20.30;99.90
27697;DHT22;15105;56.514;21.002;2022-07-23T13:19:35;20.30;99.90
27697;DHT22;15105;56.514;21.002;2022-07-23T13:22:02;20.40;99.90
27697;DHT22;15105;56.514;21.002;2022-07-23T13:24:35;20.50;99.90
27697;DHT22;15105;56.514;21.002;2022-07-23T13:27:22;20.60;99.90
27697;DHT22;15105;56.514;21.002;2022-07-23T13:29:49;20.70;99.90
27697;DHT22;15105;56.514;21.002;2022-07-23T13:32:19;20.70;99.90
27697;DHT22;15105;56.514;21.002;2022-07-23T13:34:46;20.60;99.90
27697;DHT22;15105;56.514;21.002;2022-07-23T13:37:16;20.50;99.90
27697;DHT22;15105;56.514;21.002;2022-07-23T13:39:44;20.50;99.90
27697;DHT22;15105;56.514;21.002;2022-07-23T13:42:16;20.50;99.90
27697;DHT22;15105;56.514;21.002;2022-07-23T13:44:43;20.30;99.90
27697;DHT22;15105;56.514;21.002;2022-07-23T13:47:10;20.40;99.90
27697;DHT22;15105;56.514;21.002;2022-07-23T13:49:37;20.50;99.90
27697;DHT22;15105;56.514;21.002;2022-07-23T13:52:05;20.70;99.90
27697;DHT22;15105;56.514;21.002;2022-07-23T13:54:34;21.00;99.90
27697;DHT22;15105;56.514;21.002;2022-07-23T13:57:01;21.40;99.90
27697;DHT22;15105;56.514;21.002;2022-07-23T13:59:28;21.40;99.90
27697;DHT22;15105;56.514;21.002;2022-07-23T14:01:56;21.30;99.90
27697;DHT22;15105;56.514;21.002;2022-07-23T14:04:44;21.10;99.90
27697;DHT22;15105;56.514;21.002;2022-07-23T14:07:11;21.10;99.90
27697;DHT22;15105;56.514;21.002;2022-07-23T14:09:38;21.00;99.90
27697;DHT22;15105;56.514;21.002;2022-07-23T14:12:06;21.00;99.90
27697;DHT22;15105;56.514;21.002;2022-07-23T14:14:33;20.90;99.90
27697;DHT22;15105;56.514;21.002;2022-07-23T14:17:03;20.80;99.90
27697;DHT22;15105;56.514;21.002;2022-07-23T14:19:30;20.70;99.90
27697;DHT22;15105;56.514;21.002;2022-07-23T14:21:58;20.70;99.90
27697;DHT22;15105;56.514;21.002;2022-07-23T14:24:25;20.60;99.90
27697;DHT22;15105;56.514;21.002;2022-07-23T14:27:00;20.50;99.90
27697;DHT22;15105;56.514;21.002;2022-07-23T14:29:28;20.50;99.90
27697;DHT22;15105;56.514;21.002;2022-07-23T14:31:56;20.40;99.90
27697;DHT22;15105;56.514;21.002;2022-07-23T14:34:24;20.30;99.90
27697;DHT22;15105;56.514;21.002;2022-07-23T14:36:54;20.30;99.90
27697;DHT22;15105;56.514;21.002;2022-07-23T14:39:21;20.30;99.90
27697;DHT22;15105;56.514;21.002;2022-07-23T14:41:48;20.20;99.90
27697;DHT22;15105;56.514;21.002;2022-07-23T14:44:15;20.20;99.90
27697;DHT22;15105;56.514;21.002;2022-07-23T14:46:42;20.10;99.90
27697;DHT22;15105;56.514;21.002;2022-07-23T14:49:10;20.20;99.90
27697;DHT22;15105;56.514;21.002;2022-07-23T14:51:37;20.20;99.90
27697;DHT22;15105;56.514;21.002;2022-07-23T14:54:05;20.40;99.90
27697;DHT22;15105;56.514;21.002;2022-07-23T14:56:32;20.50;99.90
27697;DHT22;15105;56.514;21.002;2022-07-23T14:59:01;20.60;99.90
27697;DHT22;15105;56.514;21.002;2022-07-23T15:01:31;20.60;99.90
27697;DHT22;15105;56.514;21.002;2022-07-23T15:04:00;20.70;99.90
27697;DHT22;15105;56.514;21.002;2022-07-23T15:06:48;20.60;99.90
27697;DHT22;15105;56.514;21.002;2022-07-23T15:09:15;20.60;99.90
27697;DHT22;15105;56.514;21.002;2022-07-23T15:11:42;20.60;99.90
27697;DHT22;15105;56.514;21.002;2022-07-23T15:14:09;20.60;99.90
27697;DHT22;15105;56.514;21.002;2022-07-23T15:16:43;20.60;99.90
27697;DHT22;15105;56.514;21.002;2022-07-23T15:19:10;20.60;99.90
27697;DHT22;15105;56.514;21.002;2022-07-23T15:21:37;20.60;99.90
27697;DHT22;15105;56.514;21.002;2022-07-23T15:24:04;20.60;99.90
27697;DHT22;15105;56.514;21.002;2022-07-23T15:26:31;20.60;99.90
27697;DHT22;15105;56.514;21.002;2022-07-23T15:28:59;20.50;99.90
27697;DHT22;15105;56.514;21.002;2022-07-23T15:31:26;20.50;99.90
27697;DHT22;15105;56.514;21.002;2022-07-23T15:33:54;20.40;99.90
27697;DHT22;15105;56.514;21.002;2022-07-23T15:36:22;20.40;99.90
27697;DHT22;15105;56.514;21.002;2022-07-23T15:38:49;20.40;99.90
27697;DHT22;15105;56.514;21.002;2022-07-23T15:41:17;20.40;99.90
27697;DHT22;15105;56.514;21.002;2022-07-23T15:43:45;20.40;99.90
27697;DHT22;15105;56.514;21.002;2022-07-23T15:46:13;20.30;99.90
27697;DHT22;15105;56.514;21.002;2022-07-23T15:48:41;20.30;99.90
27697;DHT22;15105;56.514;21.002;2022-07-23T15:51:09;20.20;99.90
27697;DHT22;15105;56.514;21.002;2022-07-23T15:53:36;20.10;99.90
27697;DHT22;15105;56.514;21.002;2022-07-23T15:56:05;20.00;99.90
27697;DHT22;15105;56.514;21.002;2022-07-23T15:58:41;19.90;99.90
27697;DHT22;15105;56.514;21.002;2022-07-23T16:01:09;19.80;99.90
27697;DHT22;15105;56.514;21.002;2022-07-23T16:03:37;19.90;99.90
27697;DHT22;15105;56.514;21.002;2022-07-23T16:06:05;19.90;99.90
27697;DHT22;15105;56.514;21.002;2022-07-23T16:08:43;20.00;99.90
27697;DHT22;15105;56.514;21.002;2022-07-23T16:11:14;20.10;99.90